sensor_id;sensor_type;location;lat;lon;timestamp;pressure;altitude;pressure_sealevel;temperature
58307;BMP280;44116;50.884;4.768;2023-10-19T00:00:05;98860.0;;;15.8
58307;BMP280;44116;50.884;4.768;2023-10-19T00:02:04;98860.0;;;15.9
58307;BMP280;44116;50.884;4.768;2023-10-19T00:04:04;98860.0;;;15.8
58307;BMP280;44116;50.884;4.768;2023-10-19T00:06:04;98860.0;;;15.9
58307;BMP280;44116;50.884;4.768;2023-10-19T00:08:04;98860.0;;;15.7
58307;BMP280;44116;50.884;4.768;2023-10-19T00:10:04;98860.0;;;15.8
58307;BMP280;44116;50.884;4.768;2023-10-19T00:12:04;98850.0;;;15.5
58307;BMP280;44116;50.884;4.768;2023-10-19T00:14:03;98860.0;;;15.7
58307;BMP280;44116;50.884;4.768;2023-10-19T00:16:03;98860.0;;;15.8
58307;BMP280;44116;50.884;4.768;2023-10-19T00:26:02;98860.0;;;15.6
58307;BMP280;44116;50.884;4.768;2023-10-19T00:28:02;98860.0;;;15.3
58307;BMP280;44116;50.884;4.768;2023-10-19T00:30:02;98860.0;;;15.2
58307;BMP280;44116;50.884;4.768;2023-10-19T00:32:02;98870.0;;;15.8
58307;BMP280;44116;50.884;4.768;2023-10-19T00:34:02;98870.0;;;15.9
58307;BMP280;44116;50.884;4.768;2023-10-19T00:36:01;98870.0;;;15.2
58307;BMP280;44116;50.884;4.768;2023-10-19T00:38:02;98860.0;;;15.1
58307;BMP280;44116;50.884;4.768;2023-10-19T00:40:01;98860.0;;;15.1
58307;BMP280;44116;50.884;4.768;2023-10-19T00:42:01;98870.0;;;15.1
58307;BMP280;44116;50.884;4.768;2023-10-19T00:44:01;98860.0;;;14.9
58307;BMP280;44116;50.884;4.768;2023-10-19T00:46:01;98860.0;;;15.0
58307;BMP280;44116;50.884;4.768;2023-10-19T00:48:01;98860.0;;;15.0
58307;BMP280;44116;50.884;4.768;2023-10-19T00:50:00;98860.0;;;14.9
58307;BMP280;44116;50.884;4.768;2023-10-19T00:52:00;98860.0;;;14.9
58307;BMP280;44116;50.884;4.768;2023-10-19T00:54:01;98860.0;;;14.9
58307;BMP280;44116;50.884;4.768;2023-10-19T00:56:00;98870.0;;;14.9
58307;BMP280;44116;50.884;4.768;2023-10-19T00:58:01;98870.0;;;14.9
58307;BMP280;44116;50.884;4.768;2023-10-19T01:00:00;98870.0;;;14.9
58307;BMP280;44116;50.884;4.768;2023-10-19T01:01:59;98870.0;;;14.9
58307;BMP280;44116;50.884;4.768;2023-10-19T01:03:59;98870.0;;;14.9
58307;BMP280;44116;50.884;4.768;2023-10-19T01:07:59;98870.0;;;14.8
58307;BMP280;44116;50.884;4.768;2023-10-19T01:09:59;98870.0;;;15.0
58307;BMP280;44116;50.884;4.768;2023-10-19T01:11:59;98880.0;;;14.7
58307;BMP280;44116;50.884;4.768;2023-10-19T01:13:58;98880.0;;;15.2
58307;BMP280;44116;50.884;4.768;2023-10-19T01:15:58;98880.0;;;14.9
58307;BMP280;44116;50.884;4.768;2023-10-19T01:18:13;98880.0;;;15.4
58307;BMP280;44116;50.884;4.768;2023-10-19T01:21:58;98880.0;;;15.6
58307;BMP280;44116;50.884;4.768;2023-10-19T01:23:58;98880.0;;;15.5
58307;BMP280;44116;50.884;4.768;2023-10-19T01:25:58;98880.0;;;15.6
58307;BMP280;44116;50.884;4.768;2023-10-19T01:31:57;98880.0;;;15.5
58307;BMP280;44116;50.884;4.768;2023-10-19T01:33:57;98880.0;;;15.5
58307;BMP280;44116;50.884;4.768;2023-10-19T01:35:57;98880.0;;;15.4
58307;BMP280;44116;50.884;4.768;2023-10-19T01:37:56;98880.0;;;15.5
58307;BMP280;44116;50.884;4.768;2023-10-19T01:39:56;98880.0;;;15.6
58307;BMP280;44116;50.884;4.768;2023-10-19T01:43:56;98880.0;;;15.6
58307;BMP280;44116;50.884;4.768;2023-10-19T01:45:56;98880.0;;;15.6
58307;BMP280;44116;50.884;4.768;2023-10-19T01:47:56;98880.0;;;15.7
58307;BMP280;44116;50.884;4.768;2023-10-19T01:49:55;98880.0;;;15.6
58307;BMP280;44116;50.884;4.768;2023-10-19T01:51:55;98880.0;;;14.7
58307;BMP280;44116;50.884;4.768;2023-10-19T01:53:55;98870.0;;;14.7
58307;BMP280;44116;50.884;4.768;2023-10-19T01:55:55;98870.0;;;14.6
58307;BMP280;44116;50.884;4.768;2023-10-19T01:57:55;98870.0;;;14.6
58307;BMP280;44116;50.884;4.768;2023-10-19T01:59:55;98870.0;;;14.6
58307;BMP280;44116;50.884;4.768;2023-10-19T02:01:54;98880.0;;;15.3
58307;BMP280;44116;50.884;4.768;2023-10-19T02:03:55;98870.0;;;14.9
58307;BMP280;44116;50.884;4.768;2023-10-19T02:05:58;98870.0;;;15.1
58307;BMP280;44116;50.884;4.768;2023-10-19T02:09:54;98860.0;;;14.8
58307;BMP280;44116;50.884;4.768;2023-10-19T02:11:55;98860.0;;;14.7
58307;BMP280;44116;50.884;4.768;2023-10-19T02:13:55;98870.0;;;15.2
58307;BMP280;44116;50.884;4.768;2023-10-19T02:15:53;98860.0;;;15.0
58307;BMP280;44116;50.884;4.768;2023-10-19T02:17:53;98860.0;;;14.7
58307;BMP280;44116;50.884;4.768;2023-10-19T02:19:53;98860.0;;;14.6
58307;BMP280;44116;50.884;4.768;2023-10-19T02:21:53;98860.0;;;15.2
58307;BMP280;44116;50.884;4.768;2023-10-19T02:23:53;98860.0;;;14.6
58307;BMP280;44116;50.884;4.768;2023-10-19T02:25:52;98860.0;;;14.6
58307;BMP280;44116;50.884;4.768;2023-10-19T02:27:52;98860.0;;;14.6
58307;BMP280;44116;50.884;4.768;2023-10-19T02:29:52;98860.0;;;14.7
58307;BMP280;44116;50.884;4.768;2023-10-19T02:31:52;98860.0;;;14.7
58307;BMP280;44116;50.884;4.768;2023-10-19T02:33:52;98860.0;;;15.1
58307;BMP280;44116;50.884;4.768;2023-10-19T02:35:52;98860.0;;;15.2
58307;BMP280;44116;50.884;4.768;2023-10-19T02:37:51;98860.0;;;15.2
58307;BMP280;44116;50.884;4.768;2023-10-19T02:39:51;98860.0;;;15.1
58307;BMP280;44116;50.884;4.768;2023-10-19T02:45:51;98840.0;;;15.1
58307;BMP280;44116;50.884;4.768;2023-10-19T02:47:51;98850.0;;;15.1
58307;BMP280;44116;50.884;4.768;2023-10-19T02:49:51;98840.0;;;15.0
58307;BMP280;44116;50.884;4.768;2023-10-19T02:53:50;98840.0;;;15.0
58307;BMP280;44116;50.884;4.768;2023-10-19T02:55:50;98840.0;;;15.1
58307;BMP280;44116;50.884;4.768;2023-10-19T02:57:50;98830.0;;;15.0
58307;BMP280;44116;50.884;4.768;2023-10-19T03:01:50;98830.0;;;14.9
58307;BMP280;44116;50.884;4.768;2023-10-19T03:03:50;98830.0;;;14.7
58307;BMP280;44116;50.884;4.768;2023-10-19T03:05:49;98830.0;;;14.8
58307;BMP280;44116;50.884;4.768;2023-10-19T03:07:49;98830.0;;;14.9
58307;BMP280;44116;50.884;4.768;2023-10-19T03:09:49;98830.0;;;14.0
58307;BMP280;44116;50.884;4.768;2023-10-19T03:11:49;98820.0;;;13.9
58307;BMP280;44116;50.884;4.768;2023-10-19T03:13:48;98820.0;;;13.8
58307;BMP280;44116;50.884;4.768;2023-10-19T03:15:48;98820.0;;;13.8
58307;BMP280;44116;50.884;4.768;2023-10-19T03:17:48;98820.0;;;13.8
58307;BMP280;44116;50.884;4.768;2023-10-19T03:19:48;98820.0;;;13.7
58307;BMP280;44116;50.884;4.768;2023-10-19T03:23:48;98820.0;;;13.6
58307;BMP280;44116;50.884;4.768;2023-10-19T03:25:52;98810.0;;;13.6
58307;BMP280;44116;50.884;4.768;2023-10-19T03:29:47;98820.0;;;13.5
58307;BMP280;44116;50.884;4.768;2023-10-19T03:31:47;98830.0;;;13.5
58307;BMP280;44116;50.884;4.768;2023-10-19T03:33:47;98820.0;;;13.5
58307;BMP280;44116;50.884;4.768;2023-10-19T03:37:46;98830.0;;;14.1
58307;BMP280;44116;50.884;4.768;2023-10-19T03:39:46;98820.0;;;13.5
58307;BMP280;44116;50.884;4.768;2023-10-19T03:41:46;98830.0;;;14.1
58307;BMP280;44116;50.884;4.768;2023-10-19T03:43:46;98830.0;;;14.3
58307;BMP280;44116;50.884;4.768;2023-10-19T03:45:46;98820.0;;;14.4
58307;BMP280;44116;50.884;4.768;2023-10-19T03:47:45;98820.0;;;14.0
58307;BMP280;44116;50.884;4.768;2023-10-19T03:49:45;98810.0;;;13.7
58307;BMP280;44116;50.884;4.768;2023-10-19T03:51:45;98820.0;;;13.7
58307;BMP280;44116;50.884;4.768;2023-10-19T03:53:45;98830.0;;;14.0
58307;BMP280;44116;50.884;4.768;2023-10-19T03:55:46;98830.0;;;14.6
58307;BMP280;44116;50.884;4.768;2023-10-19T03:57:45;98830.0;;;14.6
58307;BMP280;44116;50.884;4.768;2023-10-19T03:59:45;98820.0;;;14.7
58307;BMP280;44116;50.884;4.768;2023-10-19T04:01:44;98820.0;;;14.6
58307;BMP280;44116;50.884;4.768;2023-10-19T04:03:44;98820.0;;;14.6
58307;BMP280;44116;50.884;4.768;2023-10-19T04:05:44;98810.0;;;14.6
58307;BMP280;44116;50.884;4.768;2023-10-19T04:07:44;98820.0;;;14.8
58307;BMP280;44116;50.884;4.768;2023-10-19T04:09:43;98820.0;;;14.8
58307;BMP280;44116;50.884;4.768;2023-10-19T04:11:43;98810.0;;;14.1
58307;BMP280;44116;50.884;4.768;2023-10-19T04:13:43;98810.0;;;14.1
58307;BMP280;44116;50.884;4.768;2023-10-19T04:15:43;98820.0;;;14.1
58307;BMP280;44116;50.884;4.768;2023-10-19T04:17:43;98820.0;;;14.0
58307;BMP280;44116;50.884;4.768;2023-10-19T04:19:43;98830.0;;;14.5
58307;BMP280;44116;50.884;4.768;2023-10-19T04:21:42;98830.0;;;14.7
58307;BMP280;44116;50.884;4.768;2023-10-19T04:23:42;98830.0;;;14.7
58307;BMP280;44116;50.884;4.768;2023-10-19T04:25:42;98830.0;;;14.8
58307;BMP280;44116;50.884;4.768;2023-10-19T04:27:42;98820.0;;;14.4
58307;BMP280;44116;50.884;4.768;2023-10-19T04:29:42;98820.0;;;14.3
58307;BMP280;44116;50.884;4.768;2023-10-19T04:33:41;98820.0;;;14.5
58307;BMP280;44116;50.884;4.768;2023-10-19T04:35:41;98820.0;;;14.0
58307;BMP280;44116;50.884;4.768;2023-10-19T04:37:41;98820.0;;;14.5
58307;BMP280;44116;50.884;4.768;2023-10-19T04:39:41;98820.0;;;14.2
58307;BMP280;44116;50.884;4.768;2023-10-19T04:41:41;98820.0;;;14.0
58307;BMP280;44116;50.884;4.768;2023-10-19T04:43:40;98820.0;;;13.9
58307;BMP280;44116;50.884;4.768;2023-10-19T04:45:40;98820.0;;;14.2
58307;BMP280;44116;50.884;4.768;2023-10-19T04:47:40;98820.0;;;14.6
58307;BMP280;44116;50.884;4.768;2023-10-19T04:49:42;98820.0;;;14.6
58307;BMP280;44116;50.884;4.768;2023-10-19T04:51:40;98820.0;;;14.7
58307;BMP280;44116;50.884;4.768;2023-10-19T04:53:39;98820.0;;;14.7
58307;BMP280;44116;50.884;4.768;2023-10-19T04:55:39;98820.0;;;14.8
58307;BMP280;44116;50.884;4.768;2023-10-19T04:59:39;98820.0;;;14.9
58307;BMP280;44116;50.884;4.768;2023-10-19T05:01:39;98820.0;;;14.8
58307;BMP280;44116;50.884;4.768;2023-10-19T05:03:39;98810.0;;;14.8
58307;BMP280;44116;50.884;4.768;2023-10-19T05:05:38;98820.0;;;14.9
58307;BMP280;44116;50.884;4.768;2023-10-19T05:07:38;98820.0;;;15.0
58307;BMP280;44116;50.884;4.768;2023-10-19T05:09:38;98820.0;;;14.9
58307;BMP280;44116;50.884;4.768;2023-10-19T05:15:37;98810.0;;;14.4
58307;BMP280;44116;50.884;4.768;2023-10-19T05:17:37;98820.0;;;14.2
58307;BMP280;44116;50.884;4.768;2023-10-19T05:19:38;98820.0;;;14.3
58307;BMP280;44116;50.884;4.768;2023-10-19T05:21:37;98810.0;;;14.2
58307;BMP280;44116;50.884;4.768;2023-10-19T05:25:37;98820.0;;;14.9
58307;BMP280;44116;50.884;4.768;2023-10-19T05:27:37;98810.0;;;14.1
58307;BMP280;44116;50.884;4.768;2023-10-19T05:37:36;98810.0;;;14.0
58307;BMP280;44116;50.884;4.768;2023-10-19T05:39:35;98820.0;;;14.4
58307;BMP280;44116;50.884;4.768;2023-10-19T05:45:35;98810.0;;;14.0
58307;BMP280;44116;50.884;4.768;2023-10-19T05:47:35;98810.0;;;14.0
58307;BMP280;44116;50.884;4.768;2023-10-19T05:49:34;98820.0;;;14.0
58307;BMP280;44116;50.884;4.768;2023-10-19T05:51:34;98820.0;;;14.0
58307;BMP280;44116;50.884;4.768;2023-10-19T05:53:34;98820.0;;;14.0
58307;BMP280;44116;50.884;4.768;2023-10-19T05:57:34;98810.0;;;14.0
58307;BMP280;44116;50.884;4.768;2023-10-19T05:59:33;98820.0;;;14.0
58307;BMP280;44116;50.884;4.768;2023-10-19T06:01:33;98830.0;;;14.0
58307;BMP280;44116;50.884;4.768;2023-10-19T06:03:33;98830.0;;;14.0
58307;BMP280;44116;50.884;4.768;2023-10-19T06:07:33;98830.0;;;14.1
58307;BMP280;44116;50.884;4.768;2023-10-19T06:09:33;98830.0;;;14.1
58307;BMP280;44116;50.884;4.768;2023-10-19T06:11:32;98840.0;;;14.1
58307;BMP280;44116;50.884;4.768;2023-10-19T06:13:32;98840.0;;;14.1
58307;BMP280;44116;50.884;4.768;2023-10-19T06:15:32;98840.0;;;14.0
58307;BMP280;44116;50.884;4.768;2023-10-19T06:17:32;98840.0;;;14.4
58307;BMP280;44116;50.884;4.768;2023-10-19T06:19:32;98840.0;;;14.7
58307;BMP280;44116;50.884;4.768;2023-10-19T06:21:32;98840.0;;;14.6
58307;BMP280;44116;50.884;4.768;2023-10-19T06:25:32;98840.0;;;14.3
58307;BMP280;44116;50.884;4.768;2023-10-19T06:27:31;98840.0;;;14.4
58307;BMP280;44116;50.884;4.768;2023-10-19T06:29:31;98840.0;;;14.7
58307;BMP280;44116;50.884;4.768;2023-10-19T06:31:31;98850.0;;;15.0
58307;BMP280;44116;50.884;4.768;2023-10-19T06:33:30;98840.0;;;14.5
58307;BMP280;44116;50.884;4.768;2023-10-19T06:37:30;98840.0;;;14.3
58307;BMP280;44116;50.884;4.768;2023-10-19T06:39:30;98850.0;;;14.3
58307;BMP280;44116;50.884;4.768;2023-10-19T06:41:30;98850.0;;;14.4
58307;BMP280;44116;50.884;4.768;2023-10-19T06:43:30;98840.0;;;14.4
58307;BMP280;44116;50.884;4.768;2023-10-19T06:47:29;98840.0;;;14.5
58307;BMP280;44116;50.884;4.768;2023-10-19T06:49:29;98840.0;;;14.4
58307;BMP280;44116;50.884;4.768;2023-10-19T06:51:29;98840.0;;;14.4
58307;BMP280;44116;50.884;4.768;2023-10-19T06:59:29;98830.0;;;14.3
58307;BMP280;44116;50.884;4.768;2023-10-19T07:01:28;98830.0;;;14.4
58307;BMP280;44116;50.884;4.768;2023-10-19T07:03:28;98830.0;;;14.3
58307;BMP280;44116;50.884;4.768;2023-10-19T07:05:28;98830.0;;;14.3
58307;BMP280;44116;50.884;4.768;2023-10-19T07:07:28;98830.0;;;14.3
58307;BMP280;44116;50.884;4.768;2023-10-19T07:09:27;98830.0;;;14.3
58307;BMP280;44116;50.884;4.768;2023-10-19T07:11:27;98820.0;;;14.4
58307;BMP280;44116;50.884;4.768;2023-10-19T07:13:27;98830.0;;;14.4
58307;BMP280;44116;50.884;4.768;2023-10-19T07:15:27;98830.0;;;14.4
58307;BMP280;44116;50.884;4.768;2023-10-19T07:17:27;98820.0;;;14.5
58307;BMP280;44116;50.884;4.768;2023-10-19T07:19:27;98820.0;;;14.5
58307;BMP280;44116;50.884;4.768;2023-10-19T07:21:26;98810.0;;;14.5
58307;BMP280;44116;50.884;4.768;2023-10-19T07:23:26;98810.0;;;14.4
58307;BMP280;44116;50.884;4.768;2023-10-19T07:25:26;98810.0;;;14.5
58307;BMP280;44116;50.884;4.768;2023-10-19T07:27:26;98800.0;;;14.5
58307;BMP280;44116;50.884;4.768;2023-10-19T07:29:26;98800.0;;;14.4
58307;BMP280;44116;50.884;4.768;2023-10-19T07:33:25;98800.0;;;14.5
58307;BMP280;44116;50.884;4.768;2023-10-19T07:35:25;98800.0;;;14.6
58307;BMP280;44116;50.884;4.768;2023-10-19T07:37:25;98800.0;;;14.6
58307;BMP280;44116;50.884;4.768;2023-10-19T07:39:26;98800.0;;;14.6
58307;BMP280;44116;50.884;4.768;2023-10-19T07:41:25;98800.0;;;14.6
58307;BMP280;44116;50.884;4.768;2023-10-19T07:43:25;98800.0;;;14.7
58307;BMP280;44116;50.884;4.768;2023-10-19T07:45:24;98800.0;;;14.8
58307;BMP280;44116;50.884;4.768;2023-10-19T07:47:24;98810.0;;;14.7
58307;BMP280;44116;50.884;4.768;2023-10-19T07:49:24;98800.0;;;14.6
58307;BMP280;44116;50.884;4.768;2023-10-19T07:51:24;98800.0;;;14.7
58307;BMP280;44116;50.884;4.768;2023-10-19T07:53:24;98800.0;;;14.9
58307;BMP280;44116;50.884;4.768;2023-10-19T07:55:24;98810.0;;;14.9
58307;BMP280;44116;50.884;4.768;2023-10-19T08:01:23;98800.0;;;15.1
58307;BMP280;44116;50.884;4.768;2023-10-19T08:03:23;98790.0;;;15.0
58307;BMP280;44116;50.884;4.768;2023-10-19T08:05:23;98790.0;;;15.2
58307;BMP280;44116;50.884;4.768;2023-10-19T08:07:23;98790.0;;;15.4
58307;BMP280;44116;50.884;4.768;2023-10-19T08:11:22;98780.0;;;15.4
58307;BMP280;44116;50.884;4.768;2023-10-19T08:13:22;98770.0;;;15.4
58307;BMP280;44116;50.884;4.768;2023-10-19T08:15:22;98780.0;;;15.6
58307;BMP280;44116;50.884;4.768;2023-10-19T08:17:22;98770.0;;;15.6
58307;BMP280;44116;50.884;4.768;2023-10-19T08:19:22;98770.0;;;15.5
58307;BMP280;44116;50.884;4.768;2023-10-19T08:21:22;98780.0;;;15.7
58307;BMP280;44116;50.884;4.768;2023-10-19T08:23:21;98770.0;;;15.7
58307;BMP280;44116;50.884;4.768;2023-10-19T08:25:21;98770.0;;;15.7
58307;BMP280;44116;50.884;4.768;2023-10-19T08:27:21;98760.0;;;15.7
58307;BMP280;44116;50.884;4.768;2023-10-19T08:29:21;98760.0;;;15.8
58307;BMP280;44116;50.884;4.768;2023-10-19T08:31:21;98760.0;;;15.9
58307;BMP280;44116;50.884;4.768;2023-10-19T08:35:21;98750.0;;;15.8
58307;BMP280;44116;50.884;4.768;2023-10-19T08:37:20;98750.0;;;15.8
58307;BMP280;44116;50.884;4.768;2023-10-19T08:39:20;98740.0;;;15.8
58307;BMP280;44116;50.884;4.768;2023-10-19T08:41:20;98730.0;;;15.7
58307;BMP280;44116;50.884;4.768;2023-10-19T08:45:20;98730.0;;;15.8
58307;BMP280;44116;50.884;4.768;2023-10-19T08:47:20;98730.0;;;15.8
58307;BMP280;44116;50.884;4.768;2023-10-19T08:49:22;98730.0;;;15.6
58307;BMP280;44116;50.884;4.768;2023-10-19T08:51:19;98720.0;;;15.8
58307;BMP280;44116;50.884;4.768;2023-10-19T08:53:19;98720.0;;;15.7
58307;BMP280;44116;50.884;4.768;2023-10-19T08:55:19;98730.0;;;15.9
58307;BMP280;44116;50.884;4.768;2023-10-19T08:57:19;98720.0;;;15.8
58307;BMP280;44116;50.884;4.768;2023-10-19T08:59:21;98720.0;;;15.9
58307;BMP280;44116;50.884;4.768;2023-10-19T09:01:19;98720.0;;;15.8
58307;BMP280;44116;50.884;4.768;2023-10-19T09:03:19;98720.0;;;15.7
58307;BMP280;44116;50.884;4.768;2023-10-19T09:07:18;98700.0;;;15.7
58307;BMP280;44116;50.884;4.768;2023-10-19T09:09:18;98710.0;;;15.8
58307;BMP280;44116;50.884;4.768;2023-10-19T09:11:18;98720.0;;;15.9
58307;BMP280;44116;50.884;4.768;2023-10-19T09:13:18;98720.0;;;15.9
58307;BMP280;44116;50.884;4.768;2023-10-19T09:15:21;98720.0;;;16.1
58307;BMP280;44116;50.884;4.768;2023-10-19T09:17:19;98720.0;;;16.1
58307;BMP280;44116;50.884;4.768;2023-10-19T09:19:18;98720.0;;;16.2
58307;BMP280;44116;50.884;4.768;2023-10-19T09:21:18;98720.0;;;16.2
58307;BMP280;44116;50.884;4.768;2023-10-19T09:25:17;98720.0;;;16.2
58307;BMP280;44116;50.884;4.768;2023-10-19T09:27:17;98730.0;;;16.3
58307;BMP280;44116;50.884;4.768;2023-10-19T09:29:17;98730.0;;;16.4
58307;BMP280;44116;50.884;4.768;2023-10-19T09:31:17;98720.0;;;16.4
58307;BMP280;44116;50.884;4.768;2023-10-19T09:33:17;98720.0;;;16.3
58307;BMP280;44116;50.884;4.768;2023-10-19T09:35:17;98730.0;;;16.4
58307;BMP280;44116;50.884;4.768;2023-10-19T09:37:17;98740.0;;;16.4
58307;BMP280;44116;50.884;4.768;2023-10-19T09:41:17;98740.0;;;16.3
58307;BMP280;44116;50.884;4.768;2023-10-19T09:45:17;98740.0;;;16.5
58307;BMP280;44116;50.884;4.768;2023-10-19T09:47:19;98740.0;;;16.5
58307;BMP280;44116;50.884;4.768;2023-10-19T09:49:16;98730.0;;;16.5
58307;BMP280;44116;50.884;4.768;2023-10-19T09:51:16;98730.0;;;16.4
58307;BMP280;44116;50.884;4.768;2023-10-19T09:55:17;98730.0;;;16.7
58307;BMP280;44116;50.884;4.768;2023-10-19T09:57:17;98730.0;;;16.8
58307;BMP280;44116;50.884;4.768;2023-10-19T09:59:18;98720.0;;;16.9
58307;BMP280;44116;50.884;4.768;2023-10-19T10:01:15;98720.0;;;16.7
58307;BMP280;44116;50.884;4.768;2023-10-19T10:07:15;98720.0;;;16.8
58307;BMP280;44116;50.884;4.768;2023-10-19T10:09:16;98710.0;;;16.8
58307;BMP280;44116;50.884;4.768;2023-10-19T10:11:17;98720.0;;;17.0
58307;BMP280;44116;50.884;4.768;2023-10-19T10:17:16;98720.0;;;17.0
58307;BMP280;44116;50.884;4.768;2023-10-19T10:19:14;98720.0;;;17.0
58307;BMP280;44116;50.884;4.768;2023-10-19T10:21:14;98710.0;;;16.9
58307;BMP280;44116;50.884;4.768;2023-10-19T10:23:16;98710.0;;;16.8
58307;BMP280;44116;50.884;4.768;2023-10-19T10:27:15;98710.0;;;17.2
58307;BMP280;44116;50.884;4.768;2023-10-19T10:29:14;98710.0;;;17.1
58307;BMP280;44116;50.884;4.768;2023-10-19T10:31:14;98710.0;;;17.0
58307;BMP280;44116;50.884;4.768;2023-10-19T10:33:16;98710.0;;;17.5
58307;BMP280;44116;50.884;4.768;2023-10-19T10:37:13;98700.0;;;17.6
58307;BMP280;44116;50.884;4.768;2023-10-19T10:39:13;98700.0;;;17.5
58307;BMP280;44116;50.884;4.768;2023-10-19T10:41:19;98700.0;;;17.4
58307;BMP280;44116;50.884;4.768;2023-10-19T10:43:13;98700.0;;;17.4
58307;BMP280;44116;50.884;4.768;2023-10-19T10:45:18;98700.0;;;17.4
58307;BMP280;44116;50.884;4.768;2023-10-19T10:47:16;98730.0;;;17.6
58307;BMP280;44116;50.884;4.768;2023-10-19T10:49:14;98730.0;;;18.1
58307;BMP280;44116;50.884;4.768;2023-10-19T10:51:16;98730.0;;;18.2
58307;BMP280;44116;50.884;4.768;2023-10-19T10:53:12;98730.0;;;17.5
58307;BMP280;44116;50.884;4.768;2023-10-19T10:55:12;98750.0;;;17.5
58307;BMP280;44116;50.884;4.768;2023-10-19T10:57:12;98740.0;;;17.6
58307;BMP280;44116;50.884;4.768;2023-10-19T10:59:12;98740.0;;;17.6
58307;BMP280;44116;50.884;4.768;2023-10-19T11:01:12;98740.0;;;17.4
58307;BMP280;44116;50.884;4.768;2023-10-19T11:03:12;98740.0;;;17.2
58307;BMP280;44116;50.884;4.768;2023-10-19T11:07:17;98760.0;;;17.6
58307;BMP280;44116;50.884;4.768;2023-10-19T11:09:11;98760.0;;;17.5
58307;BMP280;44116;50.884;4.768;2023-10-19T11:11:11;98760.0;;;17.5
58307;BMP280;44116;50.884;4.768;2023-10-19T11:15:11;98760.0;;;17.2
58307;BMP280;44116;50.884;4.768;2023-10-19T11:17:11;98770.0;;;17.1
58307;BMP280;44116;50.884;4.768;2023-10-19T11:23:11;98790.0;;;16.9
58307;BMP280;44116;50.884;4.768;2023-10-19T11:25:18;98790.0;;;16.7
58307;BMP280;44116;50.884;4.768;2023-10-19T11:27:10;98800.0;;;16.9
58307;BMP280;44116;50.884;4.768;2023-10-19T11:29:16;98800.0;;;16.6
58307;BMP280;44116;50.884;4.768;2023-10-19T11:31:11;98770.0;;;16.9
58307;BMP280;44116;50.884;4.768;2023-10-19T11:33:10;98690.0;;;16.6
58307;BMP280;44116;50.884;4.768;2023-10-19T11:35:10;98680.0;;;16.7
58307;BMP280;44116;50.884;4.768;2023-10-19T11:37:10;98650.0;;;16.8
58307;BMP280;44116;50.884;4.768;2023-10-19T11:39:10;98650.0;;;16.8
58307;BMP280;44116;50.884;4.768;2023-10-19T11:41:10;98640.0;;;16.6
58307;BMP280;44116;50.884;4.768;2023-10-19T11:45:10;98630.0;;;16.9
58307;BMP280;44116;50.884;4.768;2023-10-19T11:47:09;98630.0;;;16.7
58307;BMP280;44116;50.884;4.768;2023-10-19T11:51:09;98640.0;;;17.2
58307;BMP280;44116;50.884;4.768;2023-10-19T11:53:09;98640.0;;;16.8
58307;BMP280;44116;50.884;4.768;2023-10-19T11:55:09;98640.0;;;17.1
58307;BMP280;44116;50.884;4.768;2023-10-19T11:57:09;98630.0;;;16.9
58307;BMP280;44116;50.884;4.768;2023-10-19T11:59:09;98590.0;;;16.8
58307;BMP280;44116;50.884;4.768;2023-10-19T12:01:09;98580.0;;;17.0
58307;BMP280;44116;50.884;4.768;2023-10-19T12:05:09;98580.0;;;16.6
58307;BMP280;44116;50.884;4.768;2023-10-19T12:07:08;98580.0;;;16.5
58307;BMP280;44116;50.884;4.768;2023-10-19T12:09:08;98570.0;;;16.7
58307;BMP280;44116;50.884;4.768;2023-10-19T12:11:08;98570.0;;;16.9
58307;BMP280;44116;50.884;4.768;2023-10-19T12:13:08;98570.0;;;16.9
58307;BMP280;44116;50.884;4.768;2023-10-19T12:15:08;98570.0;;;17.0
58307;BMP280;44116;50.884;4.768;2023-10-19T12:17:08;98570.0;;;17.1
58307;BMP280;44116;50.884;4.768;2023-10-19T12:19:08;98560.0;;;16.4
58307;BMP280;44116;50.884;4.768;2023-10-19T12:21:08;98560.0;;;16.0
58307;BMP280;44116;50.884;4.768;2023-10-19T12:23:07;98570.0;;;16.0
58307;BMP280;44116;50.884;4.768;2023-10-19T12:25:08;98570.0;;;15.9
58307;BMP280;44116;50.884;4.768;2023-10-19T12:27:07;98560.0;;;16.1
58307;BMP280;44116;50.884;4.768;2023-10-19T12:29:07;98560.0;;;15.9
58307;BMP280;44116;50.884;4.768;2023-10-19T12:31:07;98560.0;;;15.9
58307;BMP280;44116;50.884;4.768;2023-10-19T12:33:07;98560.0;;;15.8
58307;BMP280;44116;50.884;4.768;2023-10-19T12:37:07;98570.0;;;15.8
58307;BMP280;44116;50.884;4.768;2023-10-19T12:39:07;98560.0;;;15.7
58307;BMP280;44116;50.884;4.768;2023-10-19T12:41:06;98560.0;;;15.8
58307;BMP280;44116;50.884;4.768;2023-10-19T12:43:06;98560.0;;;15.8
58307;BMP280;44116;50.884;4.768;2023-10-19T12:45:06;98560.0;;;15.9
58307;BMP280;44116;50.884;4.768;2023-10-19T12:47:06;98560.0;;;15.7
58307;BMP280;44116;50.884;4.768;2023-10-19T12:49:06;98550.0;;;15.9
58307;BMP280;44116;50.884;4.768;2023-10-19T12:51:06;98540.0;;;15.9
58307;BMP280;44116;50.884;4.768;2023-10-19T12:53:06;98540.0;;;16.1
58307;BMP280;44116;50.884;4.768;2023-10-19T12:55:06;98530.0;;;16.3
58307;BMP280;44116;50.884;4.768;2023-10-19T12:57:05;98510.0;;;16.4
58307;BMP280;44116;50.884;4.768;2023-10-19T12:59:05;98510.0;;;16.6
58307;BMP280;44116;50.884;4.768;2023-10-19T13:03:06;98500.0;;;16.8
58307;BMP280;44116;50.884;4.768;2023-10-19T13:07:05;98500.0;;;16.9
58307;BMP280;44116;50.884;4.768;2023-10-19T13:11:05;98480.0;;;16.8
58307;BMP280;44116;50.884;4.768;2023-10-19T13:13:05;98470.0;;;17.4
58307;BMP280;44116;50.884;4.768;2023-10-19T13:15:05;98470.0;;;17.7
58307;BMP280;44116;50.884;4.768;2023-10-19T13:17:04;98470.0;;;17.6
58307;BMP280;44116;50.884;4.768;2023-10-19T13:19:04;98470.0;;;17.6
58307;BMP280;44116;50.884;4.768;2023-10-19T13:21:04;98470.0;;;17.8
58307;BMP280;44116;50.884;4.768;2023-10-19T13:25:04;98470.0;;;17.6
58307;BMP280;44116;50.884;4.768;2023-10-19T13:27:04;98470.0;;;17.8
58307;BMP280;44116;50.884;4.768;2023-10-19T13:29:04;98450.0;;;18.0
58307;BMP280;44116;50.884;4.768;2023-10-19T13:33:04;98460.0;;;17.5
58307;BMP280;44116;50.884;4.768;2023-10-19T13:35:04;98450.0;;;17.6
58307;BMP280;44116;50.884;4.768;2023-10-19T13:37:05;98460.0;;;17.5
58307;BMP280;44116;50.884;4.768;2023-10-19T13:39:03;98460.0;;;17.5
58307;BMP280;44116;50.884;4.768;2023-10-19T13:41:05;98450.0;;;17.8
58307;BMP280;44116;50.884;4.768;2023-10-19T13:43:03;98450.0;;;17.5
58307;BMP280;44116;50.884;4.768;2023-10-19T13:45:03;98460.0;;;17.7
58307;BMP280;44116;50.884;4.768;2023-10-19T13:47:03;98460.0;;;17.6
58307;BMP280;44116;50.884;4.768;2023-10-19T13:49:03;98460.0;;;17.3
58307;BMP280;44116;50.884;4.768;2023-10-19T13:51:02;98460.0;;;17.2
58307;BMP280;44116;50.884;4.768;2023-10-19T13:57:02;98460.0;;;17.2
58307;BMP280;44116;50.884;4.768;2023-10-19T14:01:02;98470.0;;;17.7
58307;BMP280;44116;50.884;4.768;2023-10-19T14:07:02;98450.0;;;17.5
58307;BMP280;44116;50.884;4.768;2023-10-19T14:09:02;98450.0;;;17.4
58307;BMP280;44116;50.884;4.768;2023-10-19T14:11:02;98450.0;;;17.3